sensor_id;sensor_type;location;lat;lon;timestamp;P1;durP1;ratioP1;P2;durP2;ratioP2
2107;SDS011;1060;52.492;13.388;2024-02-26T00:01:04;25.03;;;19.83;;
2107;SDS011;1060;52.492;13.388;2024-02-26T00:03:30;27.33;;;21.85;;
2107;SDS011;1060;52.492;13.388;2024-02-26T00:06:07;25.87;;;21.00;;
2107;SDS011;1060;52.492;13.388;2024-02-26T00:08:36;26.80;;;22.17;;
2107;SDS011;1060;52.492;13.388;2024-02-26T00:11:05;20.52;;;17.98;;
2107;SDS011;1060;52.492;13.388;2024-02-26T00:13:31;18.95;;;16.35;;
2107;SDS011;1060;52.492;13.388;2024-02-26T00:15:57;20.40;;;15.30;;
2107;SDS011;1060;52.492;13.388;2024-02-26T00:18:23;29.58;;;20.00;;
2107;SDS011;1060;52.492;13.388;2024-02-26T00:20:50;24.02;;;19.30;;
2107;SDS011;1060;52.492;13.388;2024-02-26T00:23:16;22.77;;;16.50;;
2107;SDS011;1060;52.492;13.388;2024-02-26T00:25:49;21.60;;;18.57;;
2107;SDS011;1060;52.492;13.388;2024-02-26T00:28:16;19.90;;;17.63;;
2107;SDS011;1060;52.492;13.388;2024-02-26T00:30:44;18.95;;;16.90;;
2107;SDS011;1060;52.492;13.388;2024-02-26T00:33:16;18.77;;;16.95;;
2107;SDS011;1060;52.492;13.388;2024-02-26T00:35:43;22.17;;;19.57;;
2107;SDS011;1060;52.492;13.388;2024-02-26T00:38:37;21.23;;;18.52;;
2107;SDS011;1060;52.492;13.388;2024-02-26T00:41:05;17.75;;;16.05;;
2107;SDS011;1060;52.492;13.388;2024-02-26T00:43:32;18.33;;;16.52;;
2107;SDS011;1060;52.492;13.388;2024-02-26T00:46:07;17.80;;;16.20;;
2107;SDS011;1060;52.492;13.388;2024-02-26T00:48:33;17.58;;;15.98;;
2107;SDS011;1060;52.492;13.388;2024-02-26T00:51:00;16.42;;;14.80;;
2107;SDS011;1060;52.492;13.388;2024-02-26T00:53:26;17.45;;;15.65;;
2107;SDS011;1060;52.492;13.388;2024-02-26T00:55:54;19.20;;;15.57;;
2107;SDS011;1060;52.492;13.388;2024-02-26T00:58:23;16.23;;;14.68;;
2107;SDS011;1060;52.492;13.388;2024-02-26T01:00:49;15.30;;;13.70;;
2107;SDS011;1060;52.492;13.388;2024-02-26T01:03:15;17.65;;;15.88;;
2107;SDS011;1060;52.492;13.388;2024-02-26T01:05:43;17.95;;;13.60;;
2107;SDS011;1060;52.492;13.388;2024-02-26T01:08:27;17.58;;;14.63;;
2107;SDS011;1060;52.492;13.388;2024-02-26T01:10:53;16.58;;;13.05;;
2107;SDS011;1060;52.492;13.388;2024-02-26T01:13:20;15.65;;;14.25;;
2107;SDS011;1060;52.492;13.388;2024-02-26T01:15:49;17.65;;;15.90;;
2107;SDS011;1060;52.492;13.388;2024-02-26T01:18:18;22.40;;;15.63;;
2107;SDS011;1060;52.492;13.388;2024-02-26T01:20:45;16.45;;;14.80;;
2107;SDS011;1060;52.492;13.388;2024-02-26T01:23:12;16.02;;;14.55;;
2107;SDS011;1060;52.492;13.388;2024-02-26T01:25:41;18.30;;;16.25;;
2107;SDS011;1060;52.492;13.388;2024-02-26T01:28:10;25.30;;;22.15;;
2107;SDS011;1060;52.492;13.388;2024-02-26T01:30:36;16.80;;;15.07;;
2107;SDS011;1060;52.492;13.388;2024-02-26T01:33:03;15.82;;;14.43;;
2107;SDS011;1060;52.492;13.388;2024-02-26T01:35:29;16.05;;;13.93;;
2107;SDS011;1060;52.492;13.388;2024-02-26T01:37:55;17.80;;;16.05;;
2107;SDS011;1060;52.492;13.388;2024-02-26T01:40:27;16.92;;;15.25;;
2107;SDS011;1060;52.492;13.388;2024-02-26T01:42:53;18.08;;;16.25;;
2107;SDS011;1060;52.492;13.388;2024-02-26T01:45:19;15.60;;;14.05;;
2107;SDS011;1060;52.492;13.388;2024-02-26T01:47:52;16.50;;;14.90;;
2107;SDS011;1060;52.492;13.388;2024-02-26T01:50:19;20.10;;;16.45;;
2107;SDS011;1060;52.492;13.388;2024-02-26T01:52:49;16.20;;;14.65;;
2107;SDS011;1060;52.492;13.388;2024-02-26T01:55:15;17.70;;;15.45;;
2107;SDS011;1060;52.492;13.388;2024-02-26T01:57:46;16.50;;;14.88;;
2107;SDS011;1060;52.492;13.388;2024-02-26T02:00:13;14.65;;;13.30;;
2107;SDS011;1060;52.492;13.388;2024-02-26T02:02:41;15.85;;;14.00;;
2107;SDS011;1060;52.492;13.388;2024-02-26T02:05:09;16.50;;;14.90;;
2107;SDS011;1060;52.492;13.388;2024-02-26T02:07:41;19.45;;;13.98;;
2107;SDS011;1060;52.492;13.388;2024-02-26T02:10:15;14.52;;;13.05;;
2107;SDS011;1060;52.492;13.388;2024-02-26T02:12:41;18.58;;;16.80;;
2107;SDS011;1060;52.492;13.388;2024-02-26T02:15:08;15.98;;;14.57;;
2107;SDS011;1060;52.492;13.388;2024-02-26T02:20:15;15.93;;;14.43;;
2107;SDS011;1060;52.492;13.388;2024-02-26T02:22:43;14.35;;;12.88;;
2107;SDS011;1060;52.492;13.388;2024-02-26T02:25:11;17.83;;;13.65;;
2107;SDS011;1060;52.492;13.388;2024-02-26T02:27:38;14.57;;;12.38;;
2107;SDS011;1060;52.492;13.388;2024-02-26T02:30:20;14.27;;;12.82;;
2107;SDS011;1060;52.492;13.388;2024-02-26T02:32:55;13.82;;;12.40;;
2107;SDS011;1060;52.492;13.388;2024-02-26T02:35:26;12.80;;;11.60;;
2107;SDS011;1060;52.492;13.388;2024-02-26T02:37:55;16.25;;;12.25;;
2107;SDS011;1060;52.492;13.388;2024-02-26T02:40:24;13.43;;;12.20;;
2107;SDS011;1060;52.492;13.388;2024-02-26T02:42:53;12.73;;;11.82;;
2107;SDS011;1060;52.492;13.388;2024-02-26T02:45:20;11.48;;;10.38;;
2107;SDS011;1060;52.492;13.388;2024-02-26T02:47:46;13.68;;;11.23;;
2107;SDS011;1060;52.492;13.388;2024-02-26T02:50:12;11.98;;;10.88;;
2107;SDS011;1060;52.492;13.388;2024-02-26T02:52:41;10.77;;;9.70;;
2107;SDS011;1060;52.492;13.388;2024-02-26T02:55:10;10.40;;;9.40;;
2107;SDS011;1060;52.492;13.388;2024-02-26T02:57:39;10.75;;;9.88;;
2107;SDS011;1060;52.492;13.388;2024-02-26T03:00:18;11.25;;;10.25;;
2107;SDS011;1060;52.492;13.388;2024-02-26T03:02:44;14.25;;;10.35;;
2107;SDS011;1060;52.492;13.388;2024-02-26T03:05:11;12.63;;;11.52;;
2107;SDS011;1060;52.492;13.388;2024-02-26T03:07:40;11.35;;;10.10;;
2107;SDS011;1060;52.492;13.388;2024-02-26T03:10:09;10.35;;;9.30;;
2107;SDS011;1060;52.492;13.388;2024-02-26T03:12:36;10.60;;;9.63;;
2107;SDS011;1060;52.492;13.388;2024-02-26T03:15:15;12.00;;;10.00;;
2107;SDS011;1060;52.492;13.388;2024-02-26T03:17:41;12.65;;;11.43;;
2107;SDS011;1060;52.492;13.388;2024-02-26T03:20:08;11.70;;;10.57;;
2107;SDS011;1060;52.492;13.388;2024-02-26T03:22:35;13.60;;;10.40;;
2107;SDS011;1060;52.492;13.388;2024-02-26T03:25:01;10.95;;;9.80;;
2107;SDS011;1060;52.492;13.388;2024-02-26T03:27:27;12.35;;;11.15;;
2107;SDS011;1060;52.492;13.388;2024-02-26T03:29:53;9.85;;;8.95;;
2107;SDS011;1060;52.492;13.388;2024-02-26T03:32:19;12.52;;;11.32;;
2107;SDS011;1060;52.492;13.388;2024-02-26T03:34:48;11.00;;;9.98;;
2107;SDS011;1060;52.492;13.388;2024-02-26T03:37:14;10.20;;;9.40;;
2107;SDS011;1060;52.492;13.388;2024-02-26T03:39:43;12.88;;;11.18;;
2107;SDS011;1060;52.492;13.388;2024-02-26T03:42:10;11.45;;;10.23;;
2107;SDS011;1060;52.492;13.388;2024-02-26T03:44:39;13.05;;;11.75;;
2107;SDS011;1060;52.492;13.388;2024-02-26T03:47:13;13.57;;;11.68;;
2107;SDS011;1060;52.492;13.388;2024-02-26T03:49:42;12.60;;;11.48;;
2107;SDS011;1060;52.492;13.388;2024-02-26T03:52:11;12.68;;;11.10;;
2107;SDS011;1060;52.492;13.388;2024-02-26T03:54:37;13.10;;;11.70;;
2107;SDS011;1060;52.492;13.388;2024-02-26T03:57:04;20.55;;;12.20;;
2107;SDS011;1060;52.492;13.388;2024-02-26T04:02:15;13.38;;;11.55;;
2107;SDS011;1060;52.492;13.388;2024-02-26T04:04:44;13.30;;;12.00;;
2107;SDS011;1060;52.492;13.388;2024-02-26T04:07:13;13.75;;;9.98;;
2107;SDS011;1060;52.492;13.388;2024-02-26T04:09:43;12.95;;;11.68;;
2107;SDS011;1060;52.492;13.388;2024-02-26T04:12:09;13.07;;;11.88;;
2107;SDS011;1060;52.492;13.388;2024-02-26T04:14:36;14.40;;;13.00;;
2107;SDS011;1060;52.492;13.388;2024-02-26T04:17:03;12.07;;;10.80;;
2107;SDS011;1060;52.492;13.388;2024-02-26T04:19:29;12.02;;;11.00;;
2107;SDS011;1060;52.492;13.388;2024-02-26T04:22:04;11.75;;;10.55;;
2107;SDS011;1060;52.492;13.388;2024-02-26T04:24:30;12.57;;;11.27;;
2107;SDS011;1060;52.492;13.388;2024-02-26T04:26:56;11.57;;;10.48;;
2107;SDS011;1060;52.492;13.388;2024-02-26T04:29:25;17.33;;;15.57;;
2107;SDS011;1060;52.492;13.388;2024-02-26T04:31:51;13.65;;;12.35;;
2107;SDS011;1060;52.492;13.388;2024-02-26T04:34:18;14.18;;;12.77;;
2107;SDS011;1060;52.492;13.388;2024-02-26T04:36:44;14.10;;;11.85;;
2107;SDS011;1060;52.492;13.388;2024-02-26T04:39:13;13.32;;;11.70;;
2107;SDS011;1060;52.492;13.388;2024-02-26T04:41:39;14.02;;;12.38;;
2107;SDS011;1060;52.492;13.388;2024-02-26T04:44:06;15.10;;;13.85;;
2107;SDS011;1060;52.492;13.388;2024-02-26T04:46:32;16.25;;;13.45;;
2107;SDS011;1060;52.492;13.388;2024-02-26T04:48:58;14.07;;;12.63;;
2107;SDS011;1060;52.492;13.388;2024-02-26T04:51:24;17.25;;;14.82;;
2107;SDS011;1060;52.492;13.388;2024-02-26T04:53:57;14.35;;;12.85;;
2107;SDS011;1060;52.492;13.388;2024-02-26T04:56:26;16.80;;;15.10;;
2107;SDS011;1060;52.492;13.388;2024-02-26T04:58:53;15.60;;;13.77;;
2107;SDS011;1060;52.492;13.388;2024-02-26T05:01:19;18.98;;;16.70;;
2107;SDS011;1060;52.492;13.388;2024-02-26T05:03:46;18.63;;;16.67;;
2107;SDS011;1060;52.492;13.388;2024-02-26T05:06:12;16.17;;;14.45;;
2107;SDS011;1060;52.492;13.388;2024-02-26T05:08:38;16.83;;;14.57;;
2107;SDS011;1060;52.492;13.388;2024-02-26T05:11:04;16.92;;;15.32;;
2107;SDS011;1060;52.492;13.388;2024-02-26T05:13:31;18.92;;;16.95;;
2107;SDS011;1060;52.492;13.388;2024-02-26T05:15:58;17.67;;;15.82;;
2107;SDS011;1060;52.492;13.388;2024-02-26T05:18:24;19.55;;;17.00;;
2107;SDS011;1060;52.492;13.388;2024-02-26T05:20:50;16.15;;;14.55;;
2107;SDS011;1060;52.492;13.388;2024-02-26T05:23:16;18.60;;;16.70;;
2107;SDS011;1060;52.492;13.388;2024-02-26T05:25:42;17.80;;;15.88;;
2107;SDS011;1060;52.492;13.388;2024-02-26T05:28:10;20.55;;;18.42;;
2107;SDS011;1060;52.492;13.388;2024-02-26T05:30:37;16.65;;;14.95;;
2107;SDS011;1060;52.492;13.388;2024-02-26T05:33:12;19.45;;;17.40;;
2107;SDS011;1060;52.492;13.388;2024-02-26T05:35:39;18.45;;;16.58;;
2107;SDS011;1060;52.492;13.388;2024-02-26T05:38:08;18.08;;;16.17;;
2107;SDS011;1060;52.492;13.388;2024-02-26T05:40:34;17.98;;;16.10;;
2107;SDS011;1060;52.492;13.388;2024-02-26T05:43:03;19.80;;;17.90;;
2107;SDS011;1060;52.492;13.388;2024-02-26T05:45:29;19.77;;;17.75;;
2107;SDS011;1060;52.492;13.388;2024-02-26T05:47:56;22.48;;;18.15;;
2107;SDS011;1060;52.492;13.388;2024-02-26T05:50:22;20.30;;;18.33;;
2107;SDS011;1060;52.492;13.388;2024-02-26T05:52:51;21.75;;;19.45;;
2107;SDS011;1060;52.492;13.388;2024-02-26T05:55:17;20.27;;;18.23;;
2107;SDS011;1060;52.492;13.388;2024-02-26T05:57:43;24.23;;;21.30;;
2107;SDS011;1060;52.492;13.388;2024-02-26T06:00:10;19.33;;;17.42;;
2107;SDS011;1060;52.492;13.388;2024-02-26T06:02:38;22.38;;;20.05;;
2107;SDS011;1060;52.492;13.388;2024-02-26T06:05:04;25.08;;;20.92;;
2107;SDS011;1060;52.492;13.388;2024-02-26T06:07:35;27.70;;;21.00;;
2107;SDS011;1060;52.492;13.388;2024-02-26T06:10:01;21.95;;;18.83;;
2107;SDS011;1060;52.492;13.388;2024-02-26T06:12:30;21.13;;;16.15;;
2107;SDS011;1060;52.492;13.388;2024-02-26T06:14:56;20.75;;;18.75;;
2107;SDS011;1060;52.492;13.388;2024-02-26T06:17:33;20.00;;;17.95;;
2107;SDS011;1060;52.492;13.388;2024-02-26T06:20:22;22.38;;;20.00;;
2107;SDS011;1060;52.492;13.388;2024-02-26T06:22:48;22.50;;;17.65;;
2107;SDS011;1060;52.492;13.388;2024-02-26T06:25:15;21.70;;;19.38;;
2107;SDS011;1060;52.492;13.388;2024-02-26T06:27:43;20.73;;;18.52;;
2107;SDS011;1060;52.492;13.388;2024-02-26T06:30:16;22.40;;;20.13;;
2107;SDS011;1060;52.492;13.388;2024-02-26T06:33:05;20.48;;;18.35;;
2107;SDS011;1060;52.492;13.388;2024-02-26T06:35:31;26.40;;;23.38;;
2107;SDS011;1060;52.492;13.388;2024-02-26T06:37:58;23.48;;;21.08;;
2107;SDS011;1060;52.492;13.388;2024-02-26T06:43:30;24.67;;;20.02;;
2107;SDS011;1060;52.492;13.388;2024-02-26T06:45:56;25.88;;;23.17;;
2107;SDS011;1060;52.492;13.388;2024-02-26T06:48:47;25.98;;;22.20;;
2107;SDS011;1060;52.492;13.388;2024-02-26T06:51:27;54.78;;;24.73;;
2107;SDS011;1060;52.492;13.388;2024-02-26T06:57:23;26.70;;;18.80;;
2107;SDS011;1060;52.492;13.388;2024-02-26T07:00:02;25.30;;;20.17;;
2107;SDS011;1060;52.492;13.388;2024-02-26T07:02:57;24.00;;;19.07;;
2107;SDS011;1060;52.492;13.388;2024-02-26T07:05:44;23.17;;;19.50;;
2107;SDS011;1060;52.492;13.388;2024-02-26T07:12:00;19.90;;;18.00;;
2107;SDS011;1060;52.492;13.388;2024-02-26T07:14:43;24.50;;;21.87;;
2107;SDS011;1060;52.492;13.388;2024-02-26T07:17:10;20.63;;;18.52;;
2107;SDS011;1060;52.492;13.388;2024-02-26T07:19:41;21.35;;;19.38;;
2107;SDS011;1060;52.492;13.388;2024-02-26T07:22:10;25.00;;;20.27;;
2107;SDS011;1060;52.492;13.388;2024-02-26T07:24:40;23.30;;;21.08;;
2107;SDS011;1060;52.492;13.388;2024-02-26T07:27:06;20.08;;;18.10;;
2107;SDS011;1060;52.492;13.388;2024-02-26T07:29:36;22.17;;;19.95;;
2107;SDS011;1060;52.492;13.388;2024-02-26T07:32:07;25.43;;;20.07;;
2107;SDS011;1060;52.492;13.388;2024-02-26T07:34:36;21.40;;;19.17;;
2107;SDS011;1060;52.492;13.388;2024-02-26T07:37:13;22.13;;;20.20;;
2107;SDS011;1060;52.492;13.388;2024-02-26T07:39:39;24.17;;;21.50;;
2107;SDS011;1060;52.492;13.388;2024-02-26T07:42:16;30.63;;;22.33;;
2107;SDS011;1060;52.492;13.388;2024-02-26T07:44:48;20.87;;;18.70;;
2107;SDS011;1060;52.492;13.388;2024-02-26T07:47:31;21.17;;;18.90;;
2107;SDS011;1060;52.492;13.388;2024-02-26T07:49:59;22.80;;;19.63;;
2107;SDS011;1060;52.492;13.388;2024-02-26T07:52:29;23.57;;;21.20;;
2107;SDS011;1060;52.492;13.388;2024-02-26T07:54:55;21.87;;;19.57;;
2107;SDS011;1060;52.492;13.388;2024-02-26T07:57:24;23.17;;;20.03;;
2107;SDS011;1060;52.492;13.388;2024-02-26T08:00:03;22.07;;;19.87;;
2107;SDS011;1060;52.492;13.388;2024-02-26T08:03:03;21.10;;;17.57;;
2107;SDS011;1060;52.492;13.388;2024-02-26T08:05:29;23.30;;;20.07;;
2107;SDS011;1060;52.492;13.388;2024-02-26T08:07:58;26.60;;;19.40;;
2107;SDS011;1060;52.492;13.388;2024-02-26T08:10:27;22.20;;;20.10;;
2107;SDS011;1060;52.492;13.388;2024-02-26T08:13:04;20.33;;;18.20;;
2107;SDS011;1060;52.492;13.388;2024-02-26T08:15:44;21.50;;;19.03;;
2107;SDS011;1060;52.492;13.388;2024-02-26T08:18:20;23.93;;;20.37;;
2107;SDS011;1060;52.492;13.388;2024-02-26T08:20:49;19.73;;;17.83;;
2107;SDS011;1060;52.492;13.388;2024-02-26T08:26:21;22.17;;;20.03;;
2107;SDS011;1060;52.492;13.388;2024-02-26T08:28:50;23.10;;;20.10;;
2107;SDS011;1060;52.492;13.388;2024-02-26T08:31:19;22.77;;;20.40;;
2107;SDS011;1060;52.492;13.388;2024-02-26T08:33:54;21.07;;;19.23;;
2107;SDS011;1060;52.492;13.388;2024-02-26T08:36:27;22.37;;;19.97;;
2107;SDS011;1060;52.492;13.388;2024-02-26T08:38:56;28.63;;;22.50;;
2107;SDS011;1060;52.492;13.388;2024-02-26T08:41:25;23.70;;;19.63;;
2107;SDS011;1060;52.492;13.388;2024-02-26T08:43:55;22.60;;;20.37;;
2107;SDS011;1060;52.492;13.388;2024-02-26T08:46:21;25.27;;;19.87;;
2107;SDS011;1060;52.492;13.388;2024-02-26T08:48:50;26.80;;;19.87;;
2107;SDS011;1060;52.492;13.388;2024-02-26T08:51:20;25.47;;;22.33;;
2107;SDS011;1060;52.492;13.388;2024-02-26T08:53:48;25.30;;;19.60;;
2107;SDS011;1060;52.492;13.388;2024-02-26T08:56:16;23.43;;;20.93;;
2107;SDS011;1060;52.492;13.388;2024-02-26T08:58:45;23.67;;;21.17;;
2107;SDS011;1060;52.492;13.388;2024-02-26T09:01:17;20.37;;;17.07;;
2107;SDS011;1060;52.492;13.388;2024-02-26T09:03:48;23.50;;;20.37;;
2107;SDS011;1060;52.492;13.388;2024-02-26T09:06:15;21.87;;;18.93;;
2107;SDS011;1060;52.492;13.388;2024-02-26T09:08:45;20.47;;;18.63;;
2107;SDS011;1060;52.492;13.388;2024-02-26T09:11:12;19.87;;;17.97;;
2107;SDS011;1060;52.492;13.388;2024-02-26T09:13:41;18.50;;;16.53;;
2107;SDS011;1060;52.492;13.388;2024-02-26T09:16:11;22.03;;;19.90;;
2107;SDS011;1060;52.492;13.388;2024-02-26T09:18:40;20.73;;;16.97;;
2107;SDS011;1060;52.492;13.388;2024-02-26T09:21:19;18.60;;;16.70;;
2107;SDS011;1060;52.492;13.388;2024-02-26T09:23:51;20.13;;;17.97;;
2107;SDS011;1060;52.492;13.388;2024-02-26T09:26:18;20.47;;;17.67;;
2107;SDS011;1060;52.492;13.388;2024-02-26T09:28:47;24.47;;;17.63;;
2107;SDS011;1060;52.492;13.388;2024-02-26T09:31:18;20.17;;;18.07;;
2107;SDS011;1060;52.492;13.388;2024-02-26T09:33:45;19.83;;;17.73;;
2107;SDS011;1060;52.492;13.388;2024-02-26T09:36:17;18.93;;;17.00;;
2107;SDS011;1060;52.492;13.388;2024-02-26T09:38:51;20.33;;;16.90;;
2107;SDS011;1060;52.492;13.388;2024-02-26T09:41:18;20.88;;;18.77;;
2107;SDS011;1060;52.492;13.388;2024-02-26T09:43:50;20.97;;;18.77;;
2107;SDS011;1060;52.492;13.388;2024-02-26T09:46:25;20.73;;;18.20;;
2107;SDS011;1060;52.492;13.388;2024-02-26T09:48:54;17.47;;;15.30;;
2107;SDS011;1060;52.492;13.388;2024-02-26T09:51:22;17.70;;;15.83;;
2107;SDS011;1060;52.492;13.388;2024-02-26T09:53:52;17.13;;;15.47;;
2107;SDS011;1060;52.492;13.388;2024-02-26T09:56:29;15.50;;;14.20;;
2107;SDS011;1060;52.492;13.388;2024-02-26T09:58:59;18.17;;;16.37;;
2107;SDS011;1060;52.492;13.388;2024-02-26T10:01:36;18.67;;;15.90;;
2107;SDS011;1060;52.492;13.388;2024-02-26T10:04:04;19.27;;;17.30;;
2107;SDS011;1060;52.492;13.388;2024-02-26T10:06:53;19.77;;;17.77;;
2107;SDS011;1060;52.492;13.388;2024-02-26T10:09:23;19.70;;;17.33;;
2107;SDS011;1060;52.492;13.388;2024-02-26T10:12:10;17.03;;;14.60;;
2107;SDS011;1060;52.492;13.388;2024-02-26T10:17:37;15.40;;;14.00;;
2107;SDS011;1060;52.492;13.388;2024-02-26T10:21:04;17.53;;;15.40;;
2107;SDS011;1060;52.492;13.388;2024-02-26T10:23:15;16.73;;;15.03;;
2107;SDS011;1060;52.492;13.388;2024-02-26T10:25:56;15.70;;;14.17;;
2107;SDS011;1060;52.492;13.388;2024-02-26T10:28:32;23.00;;;15.07;;
2107;SDS011;1060;52.492;13.388;2024-02-26T10:31:11;14.93;;;13.33;;
2107;SDS011;1060;52.492;13.388;2024-02-26T10:33:45;17.03;;;15.30;;
2107;SDS011;1060;52.492;13.388;2024-02-26T10:36:15;15.33;;;13.77;;
2107;SDS011;1060;52.492;13.388;2024-02-26T10:38:43;16.60;;;12.27;;
2107;SDS011;1060;52.492;13.388;2024-02-26T10:41:13;14.73;;;13.43;;
2107;SDS011;1060;52.492;13.388;2024-02-26T10:43:48;15.50;;;13.90;;
2107;SDS011;1060;52.492;13.388;2024-02-26T10:46:19;14.57;;;13.27;;
2107;SDS011;1060;52.492;13.388;2024-02-26T10:49:02;15.10;;;13.77;;
2107;SDS011;1060;52.492;13.388;2024-02-26T10:51:34;13.93;;;12.60;;
2107;SDS011;1060;52.492;13.388;2024-02-26T10:54:08;12.83;;;11.53;;
2107;SDS011;1060;52.492;13.388;2024-02-26T10:56:59;14.50;;;12.70;;
2107;SDS011;1060;52.492;13.388;2024-02-26T10:59:31;12.73;;;11.73;;
2107;SDS011;1060;52.492;13.388;2024-02-26T11:02:07;15.43;;;13.50;;
2107;SDS011;1060;52.492;13.388;2024-02-26T11:05:04;14.33;;;11.77;;
2107;SDS011;1060;52.492;13.388;2024-02-26T11:07:30;12.27;;;11.03;;
2107;SDS011;1060;52.492;13.388;2024-02-26T11:10:10;14.30;;;11.77;;
2107;SDS011;1060;52.492;13.388;2024-02-26T11:12:40;10.33;;;9.33;;
2107;SDS011;1060;52.492;13.388;2024-02-26T11:15:10;13.30;;;12.20;;
2107;SDS011;1060;52.492;13.388;2024-02-26T11:17:40;13.93;;;12.10;;
2107;SDS011;1060;52.492;13.388;2024-02-26T11:20:13;13.63;;;12.23;;
2107;SDS011;1060;52.492;13.388;2024-02-26T11:25:40;12.47;;;11.17;;
2107;SDS011;1060;52.492;13.388;2024-02-26T11:28:19;11.50;;;10.30;;
2107;SDS011;1060;52.492;13.388;2024-02-26T11:30:52;11.23;;;10.03;;
2107;SDS011;1060;52.492;13.388;2024-02-26T11:33:48;11.20;;;9.63;;
2107;SDS011;1060;52.492;13.388;2024-02-26T11:36:19;13.90;;;11.40;;
2107;SDS011;1060;52.492;13.388;2024-02-26T11:39:11;12.27;;;11.27;;
2107;SDS011;1060;52.492;13.388;2024-02-26T11:42:08;14.50;;;9.63;;
2107;SDS011;1060;52.492;13.388;2024-02-26T11:44:37;11.10;;;10.00;;
2107;SDS011;1060;52.492;13.388;2024-02-26T11:47:14;11.17;;;10.17;;
2107;SDS011;1060;52.492;13.388;2024-02-26T11:52:38;11.90;;;10.50;;
2107;SDS011;1060;52.492;13.388;2024-02-26T11:55:04;12.07;;;10.60;;
2107;SDS011;1060;52.492;13.388;2024-02-26T11:57:48;10.47;;;9.50;;
2107;SDS011;1060;52.492;13.388;2024-02-26T12:00:18;10.83;;;9.83;;
2107;SDS011;1060;52.492;13.388;2024-02-26T12:02:52;13.33;;;12.03;;
2107;SDS011;1060;52.492;13.388;2024-02-26T12:05:33;11.77;;;10.10;;
2107;SDS011;1060;52.492;13.388;2024-02-26T12:08:00;10.50;;;9.40;;
2107;SDS011;1060;52.492;13.388;2024-02-26T12:10:35;12.00;;;11.00;;
2107;SDS011;1060;52.492;13.388;2024-02-26T12:16:05;14.03;;;12.23;;
2107;SDS011;1060;52.492;13.388;2024-02-26T12:18:37;12.70;;;11.33;;
2107;SDS011;1060;52.492;13.388;2024-02-26T12:21:11;13.83;;;12.53;;
2107;SDS011;1060;52.492;13.388;2024-02-26T12:23:52;14.23;;;12.87;;
2107;SDS011;1060;52.492;13.388;2024-02-26T12:26:25;12.20;;;11.20;;
2107;SDS011;1060;52.492;13.388;2024-02-26T12:29:03;12.57;;;11.47;;
2107;SDS011;1060;52.492;13.388;2024-02-26T12:31:35;12.03;;;10.70;;
2107;SDS011;1060;52.492;13.388;2024-02-26T12:34:08;17.00;;;11.33;;
2107;SDS011;1060;52.492;13.388;2024-02-26T12:36:46;13.73;;;12.43;;
2107;SDS011;1060;52.492;13.388;2024-02-26T12:39:18;13.17;;;11.87;;
2107;SDS011;1060;52.492;13.388;2024-02-26T12:41:57;15.00;;;13.40;;
2107;SDS011;1060;52.492;13.388;2024-02-26T12:44:26;13.37;;;12.27;;
2107;SDS011;1060;52.492;13.388;2024-02-26T12:47:08;15.20;;;13.60;;
2107;SDS011;1060;52.492;13.388;2024-02-26T12:49:42;14.23;;;12.30;;
2107;SDS011;1060;52.492;13.388;2024-02-26T12:52:12;13.07;;;10.33;;
2107;SDS011;1060;52.492;13.388;2024-02-26T12:54:39;9.90;;;8.90;;
2107;SDS011;1060;52.492;13.388;2024-02-26T12:57:24;15.03;;;10.23;;
2107;SDS011;1060;52.492;13.388;2024-02-26T12:59:59;11.33;;;10.30;;
2107;SDS011;1060;52.492;13.388;2024-02-26T13:02:29;10.90;;;9.90;;
2107;SDS011;1060;52.492;13.388;2024-02-26T13:07:58;11.80;;;8.70;;
2107;SDS011;1060;52.492;13.388;2024-02-26T13:10:32;10.50;;;9.50;;
2107;SDS011;1060;52.492;13.388;2024-02-26T13:13:02;10.00;;;8.90;;
2107;SDS011;1060;52.492;13.388;2024-02-26T13:15:36;7.60;;;6.80;;
2107;SDS011;1060;52.492;13.388;2024-02-26T13:18:12;8.23;;;7.50;;
2107;SDS011;1060;52.492;13.388;2024-02-26T13:20:47;6.30;;;5.70;;
2107;SDS011;1060;52.492;13.388;2024-02-26T13:23:43;8.37;;;7.57;;
2107;SDS011;1060;52.492;13.388;2024-02-26T13:26:22;10.97;;;8.20;;
2107;SDS011;1060;52.492;13.388;2024-02-26T13:29:18;11.30;;;7.70;;
2107;SDS011;1060;52.492;13.388;2024-02-26T13:31:46;7.97;;;7.30;;
2107;SDS011;1060;52.492;13.388;2024-02-26T13:34:22;8.00;;;7.20;;
2107;SDS011;1060;52.492;13.388;2024-02-26T13:37:33;8.70;;;7.70;;
2107;SDS011;1060;52.492;13.388;2024-02-26T13:39:40;7.53;;;6.83;;
2107;SDS011;1060;52.492;13.388;2024-02-26T13:42:07;10.37;;;7.93;;
2107;SDS011;1060;52.492;13.388;2024-02-26T13:44:37;7.50;;;5.60;;
2107;SDS011;1060;52.492;13.388;2024-02-26T13:47:09;7.47;;;6.77;;
2107;SDS011;1060;52.492;13.388;2024-02-26T13:49:44;8.33;;;6.13;;
2107;SDS011;1060;52.492;13.388;2024-02-26T13:52:17;14.80;;;6.73;;
2107;SDS011;1060;52.492;13.388;2024-02-26T13:58:02;6.60;;;5.83;;
2107;SDS011;1060;52.492;13.388;2024-02-26T14:01:10;6.73;;;6.13;;
2107;SDS011;1060;52.492;13.388;2024-02-26T14:03:36;7.17;;;6.57;;
2107;SDS011;1060;52.492;13.388;2024-02-26T14:06:10;6.43;;;5.73;;
2107;SDS011;1060;52.492;13.388;2024-02-26T14:08:39;8.30;;;7.60;;
2107;SDS011;1060;52.492;13.388;2024-02-26T14:11:09;6.63;;;5.93;;
2107;SDS011;1060;52.492;13.388;2024-02-26T14:13:43;6.87;;;6.20;;
2107;SDS011;1060;52.492;13.388;2024-02-26T14:16:40;8.13;;;6.90;;
2107;SDS011;1060;52.492;13.388;2024-02-26T14:19:05;7.93;;;6.90;;
2107;SDS011;1060;52.492;13.388;2024-02-26T14:21:38;8.53;;;7.67;;
2107;SDS011;1060;52.492;13.388;2024-02-26T14:24:24;5.50;;;5.10;;
2107;SDS011;1060;52.492;13.388;2024-02-26T14:26:54;7.50;;;6.73;;
2107;SDS011;1060;52.492;13.388;2024-02-26T14:29:28;6.73;;;6.10;;
2107;SDS011;1060;52.492;13.388;2024-02-26T14:31:59;6.93;;;6.30;;
2107;SDS011;1060;52.492;13.388;2024-02-26T14:34:26;6.97;;;6.37;;
2107;SDS011;1060;52.492;13.388;2024-02-26T14:36:53;8.53;;;7.83;;
2107;SDS011;1060;52.492;13.388;2024-02-26T14:39:22;8.27;;;7.40;;
2107;SDS011;1060;52.492;13.388;2024-02-26T14:42:06;7.63;;;6.90;;
2107;SDS011;1060;52.492;13.388;2024-02-26T14:51:22;9.17;;;8.20;;
2107;SDS011;1060;52.492;13.388;2024-02-26T14:54:01;9.33;;;8.53;;
2107;SDS011;1060;52.492;13.388;2024-02-26T14:56:54;11.33;;;7.60;;
2107;SDS011;1060;52.492;13.388;2024-02-26T15:00:01;8.60;;;7.70;;
2107;SDS011;1060;52.492;13.388;2024-02-26T15:03:09;10.93;;;7.77;;
2107;SDS011;1060;52.492;13.388;2024-02-26T15:09:18;9.47;;;8.43;;
2107;SDS011;1060;52.492;13.388;2024-02-26T16:57:07;16.53;;;14.83;;
2107;SDS011;1060;52.492;13.388;2024-02-26T17:00:18;14.27;;;12.87;;
2107;SDS011;1060;52.492;13.388;2024-02-26T17:02:58;14.20;;;12.90;;
2107;SDS011;1060;52.492;13.388;2024-02-26T17:08:42;13.83;;;12.63;;
2107;SDS011;1060;52.492;13.388;2024-02-26T17:11:11;12.97;;;11.70;;
2107;SDS011;1060;52.492;13.388;2024-02-26T17:13:41;15.10;;;12.80;;
2107;SDS011;1060;52.492;13.388;2024-02-26T17:16:08;15.63;;;13.07;;
2107;SDS011;1060;52.492;13.388;2024-02-26T17:18:50;14.57;;;13.10;;
2107;SDS011;1060;52.492;13.388;2024-02-26T17:21:18;12.80;;;11.47;;
2107;SDS011;1060;52.492;13.388;2024-02-26T17:23:56;16.77;;;15.00;;
2107;SDS011;1060;52.492;13.388;2024-02-26T17:26:31;15.00;;;13.37;;
2107;SDS011;1060;52.492;13.388;2024-02-26T17:29:27;14.87;;;12.30;;
2107;SDS011;1060;52.492;13.388;2024-02-26T17:32:15;18.13;;;15.90;;
2107;SDS011;1060;52.492;13.388;2024-02-26T17:34:43;18.33;;;16.43;;
2107;SDS011;1060;52.492;13.388;2024-02-26T17:37:15;25.57;;;17.23;;
2107;SDS011;1060;52.492;13.388;2024-02-26T17:50:41;25.97;;;17.53;;
2107;SDS011;1060;52.492;13.388;2024-02-26T17:53:26;29.17;;;19.40;;